• Join FlightAware (Why Join?)
  • Login
  • US Flag 
12:46AM EDT


 

Airport Tracker/Info


-or-


 

Live Flight TrackerFlight Track Log ✈ LXJ342 ✈ 07-May-2013 ✈ KTEB - KROG

Flight Track Log - Related Links

Times and Time Zones

All times are in EDT time to prevent confusion due to time zone crossing. See the LXJ342 flight status page for this flight to view local times or setup timezone preferences in your user account.

Time Position Orientation Groundspeed Altitude Reporting Facility
EDT Latitude Longitude Course Direction KTS MPH feet Rate Location/Type
04:47PM 40.8333 -74.1000 252° West 192 221 1,500  Level New York TRACON
04:48PM 40.8167 -74.1667 252° West 214 246 1,700 1,620 Climbing New York TRACON
04:49PM 40.8167 -74.2500 270° West 221 254 4,800 2,460 Climbing New York TRACON
04:50PM 40.8167 -74.3333 270° West 232 267 6,700 2,520 Climbing New York TRACON
04:51PM 40.8167 -74.4333 270° West 282 325 9,900 2,820 Climbing New York TRACON
04:52PM 40.8567 -74.6394 284° West 337 388 14,800 2,400 Climbing New York Center
04:53PM 40.8419 -74.7675 261° West 377 434 16,800 1,920 Climbing New York Center
04:54PM 40.8236 -74.9336 262° West 422 486 18,700 1,920 Climbing New York Center
04:55PM 40.8078 -75.0864 262° West 427 491 20,700 1,800 Climbing New York Center
04:56PM 40.7928 -75.2086 261° West 427 491 22,300 1,920 Climbing New York Center
04:57PM 40.7564 -75.3953 256° West 433 498 24,700 1,980 Climbing New York Center
04:58PM 40.7092 -75.5372 246° West 428 493 26,300 1,620 Climbing New York Center
04:59PM 40.6508 -75.6892 243° Southwest 443 510 27,900 1,500 Climbing New York Center
05:00PM 40.5992 -75.8250 243° Southwest 459 528 29,400 1,380 Climbing New York Center
05:01PM 40.5339 -75.9839 242° Southwest 464 534 30,800 1,260 Climbing New York Center
05:02PM 40.4792 -76.1353 245° Southwest 464 534 32,000 1,140 Climbing New York Center
05:03PM 40.4222 -76.2892 244° Southwest 459 528 33,200 1,140 Climbing New York Center
05:04PM 40.3792 -76.4464 250° West 459 528 34,400 1,140 Climbing New York Center
05:05PM 40.3383 -76.6011 251° West 459 528 35,600 780 Climbing New York Center
05:06PM 40.2950 -76.7581 250° West 459 528 36,000 180 Climbing New York Center
05:07PM 40.2517 -76.9147 250° West 459 528 36,000  Level New York Center
05:08PM 40.2094 -77.0822 252° West 466 536 36,000  Level New York Center
05:09PM 40.1678 -77.2361 251° West 466 536 36,000  Level New York Center
05:11PM 40.1403 -77.5875 264° West 469 540 36,000  Level Cleveland Center
05:12PM 40.1342 -77.7589 267° West 479 551 36,000  Level Cleveland Center
05:13PM 40.1278 -77.9219 267° West 490 564 36,000  Level Cleveland Center
05:14PM 40.1214 -78.0933 267° West 490 564 36,000 120 Level Cleveland Center
05:15PM 40.1269 -78.2697 272° West 490 564 36,300 600 Climbing Cleveland Center
05:16PM 40.1431 -78.4431 277° West 484 557 37,300 900 Climbing Cleveland Center
05:17PM 40.1586 -78.6136 277° West 484 557 38,200 840 Climbing Cleveland Center
05:18PM 40.1697 -78.7817 275° West 477 549 39,000 600 Climbing Cleveland Center
05:19PM 40.1722 -78.9475 271° West 472 543 39,400 480 Climbing Cleveland Center
05:20PM 40.1411 -79.1056 256° West 467 537 40,000 300 Climbing Cleveland Center
05:21PM 40.1097 -79.2692 256° West 462 532 40,000  Level Cleveland Center
05:22PM 40.0864 -79.4297 259° West 462 532 40,000  Level Cleveland Center
05:23PM 40.0586 -79.5931 258° West 462 532 40,000  Level Cleveland Center
05:24PM 40.0286 -79.7561 257° West 462 532 40,000  Level Cleveland Center
05:25PM 39.9986 -79.9164 256° West 462 532 40,000  Level Cleveland Center
05:26PM 39.9681 -80.0792 256° West 462 532 40,000  Level Cleveland Center
05:27PM 39.9417 -80.2364 258° West 457 526 40,000  Level Cleveland Center
05:28PM 39.9106 -80.3992 256° West 457 526 40,000  Level Cleveland Center
05:29PM 39.8794 -80.5614 256° West 457 526 40,000  Level Cleveland Center
05:31PM 39.8247 -80.8358 256° West 462 532 40,000  Level Indianapolis Center
05:32PM 39.7933 -80.9981 256° West 463 533 40,000  Level Indianapolis Center
05:33PM 39.7628 -81.1644 257° West 469 540 40,000  Level Indianapolis Center
05:34PM 39.7314 -81.3278 256° West 470 541 40,000  Level Indianapolis Center
05:35PM 39.6986 -81.4919 256° West 466 536 40,000  Level Indianapolis Center
05:36PM 39.6611 -81.6847 256° West 468 539 40,000  Level Indianapolis Center
05:37PM 39.6278 -81.8475 255° West 468 539 40,000  Level Indianapolis Center
05:38PM 39.5956 -82.0108 256° West 469 540 40,000  Level Indianapolis Center
05:39PM 39.5600 -82.1792 255° West 469 540 40,000  Level Indianapolis Center
05:40PM 39.5275 -82.3439 256° West 468 539 40,000  Level Indianapolis Center
05:41PM 39.4931 -82.5083 255° West 469 540 40,000  Level Indianapolis Center
05:42PM 39.4583 -82.6725 255° West 469 540 40,000  Level Indianapolis Center
05:44PM 39.4181 -82.8639 255° West 468 539 40,000  Level Indianapolis Center
05:45PM 39.3839 -83.0283 255° West 468 539 40,000  Level Indianapolis Center
05:46PM 39.3483 -83.1919 254° West 466 536 40,000  Level Indianapolis Center
05:47PM 39.3136 -83.3556 255° West 465 535 40,000  Level Indianapolis Center
05:48PM 39.2794 -83.5181 255° West 463 533 40,000  Level Indianapolis Center
05:49PM 39.2428 -83.6786 254° West 461 531 40,000  Level Indianapolis Center
05:50PM 39.2081 -83.8383 254° West 458 527 40,000  Level Indianapolis Center
05:51PM 39.1736 -83.9981 255° West 457 526 40,000  Level Indianapolis Center
05:52PM 39.1375 -84.1569 254° West 457 526 40,000  Level Indianapolis Center
05:53PM 39.0961 -84.3411 254° West 456 525 40,000  Level Indianapolis Center
05:54PM 39.0606 -84.4994 254° West 455 524 40,000  Level Indianapolis Center
05:55PM 39.0244 -84.6600 254° West 462 532 40,000  Level Indianapolis Center
05:56PM 38.9792 -84.8183 250° West 466 536 40,000  Level Indianapolis Center
05:57PM 38.9222 -84.9736 245° Southwest 465 535 40,000  Level Indianapolis Center
05:58PM 38.8703 -85.1267 246° West 468 539 40,000  Level Indianapolis Center
05:59PM 38.8169 -85.2794 246° West 469 540 40,000  Level Indianapolis Center
06:00PM 38.7644 -85.4339 246° West 472 543 40,000  Level Indianapolis Center
06:01PM 38.7100 -85.5878 246° West 474 545 40,000  Level Indianapolis Center
06:02PM 38.6467 -85.7728 246° West 474 545 40,000  Level Indianapolis Center
06:03PM 38.5983 -85.9103 246° West 475 547 40,000  Level Indianapolis Center
06:04PM 38.5439 -86.0633 246° West 472 543 40,000  Level Indianapolis Center
06:05PM 38.4794 -86.2469 246° West 471 542 40,000  Level Indianapolis Center
06:06PM 38.4411 -86.4064 253° West 468 539 40,000  Level Indianapolis Center
06:07PM 38.4033 -86.5653 253° West 466 536 40,000  Level Indianapolis Center
06:08PM 38.3650 -86.7242 253° West 467 537 40,000  Level Indianapolis Center
06:09PM 38.3269 -86.8833 253° West 467 537 40,000  Level Indianapolis Center
06:10PM 38.2864 -87.0550 253° West 470 541 40,000  Level Indianapolis Center
06:11PM 38.2483 -87.2139 253° West 470 541 40,000  Level Indianapolis Center
06:12PM 38.2092 -87.3736 253° West 463 533 40,000  Level Indianapolis Center
06:13PM 38.1714 -87.5283 253° West 458 527 40,000  Level Indianapolis Center
06:15PM 38.1339 -87.6819 253° West 455 524 40,000  Level Indianapolis Center
06:16PM 38.0872 -87.8642 252° West 451 519 40,000  Level Indianapolis Center
06:16PM 38.0581 -87.9875 253° West 453 521 40,000  Level Kansas City Center
06:17PM 38.0194 -88.1394 252° West 452 520 40,000  Level Kansas City Center
06:18PM 37.9814 -88.2908 252° West 451 519 40,000  Level Kansas City Center
06:19PM 37.9478 -88.4469 255° West 455 524 40,000  Level Kansas City Center
06:21PM 37.9181 -88.6039 257° West 455 524 40,000  Level Kansas City Center
06:22PM 37.8867 -88.7661 256° West 456 525 40,000  Level Kansas City Center
06:23PM 37.8558 -88.9206 256° West 454 522 40,000  Level Kansas City Center
06:24PM 37.8200 -89.1056 256° West 458 527 40,000  Level Kansas City Center
06:25PM 37.7908 -89.2503 256° West 455 524 40,000  Level Kansas City Center
06:26PM 37.7586 -89.4161 256° West 451 519 40,000  Level Kansas City Center
06:27PM 37.7278 -89.5681 256° West 449 517 40,000  Level Kansas City Center
06:28PM 37.6969 -89.7200 256° West 446 513 40,000  Level Kansas City Center
06:29PM 37.6658 -89.8728 256° West 448 516 40,000  Level Kansas City Center
06:30PM 37.6342 -90.0250 255° West 449 517 40,000  Level Kansas City Center
06:31PM 37.6025 -90.1783 255° West 449 517 40,000  Level Kansas City Center
06:32PM 37.5714 -90.3308 256° West 450 518 40,000  Level Kansas City Center
06:33PM 37.5328 -90.5103 255° West 446 513 40,000  Level Kansas City Center
06:34PM 37.5017 -90.6600 255° West 442 509 40,000  Level Kansas City Center
06:35PM 37.4694 -90.8056 254° West 441 507 40,000  Level Kansas City Center
06:36PM 37.4386 -90.9567 256° West 443 510 40,000  Level Kansas City Center
06:37PM 37.3994 -91.1378 255° West 445 512 40,000  Level Kansas City Center
06:38PM 37.3667 -91.2883 255° West 445 512 40,000  Level Kansas City Center
06:39PM 37.3342 -91.4394 255° West 444 511 40,000  Level Kansas City Center
06:40PM 37.3028 -91.5875 255° West 441 507 40,000  Level Kansas City Center
06:41PM 37.2700 -91.7372 255° West 441 507 40,000  Level Kansas City Center
06:42PM 37.2361 -91.8864 254° West 442 509 40,000  Level Kansas City Center
06:43PM 37.2028 -92.0358 254° West 442 509 40,000  Level Kansas City Center
06:44PM 37.1689 -92.1828 254° West 440 506 40,000 -240 Level Kansas City Center
06:45PM 37.1300 -92.3567 254° West 432 497 39,600 -1,140 Descending Kansas City Center
06:46PM 37.0953 -92.5042 254° West 435 501 37,700 -2,040 Descending Kansas City Center
06:47PM 37.0619 -92.6556 255° West 444 511 35,400 -3,000 Descending Kansas City Center
06:48PM 37.0275 -92.8036 254° West 443 510 31,500 -4,200 Descending Kansas City Center
06:49PM 36.9911 -92.9581 254° West 452 520 26,800 -4,380 Descending Kansas City Center
06:50PM 36.9556 -93.1111 254° West 457 526 22,500 -4,140 Descending Kansas City Center
06:52PM 36.9225 -93.2569 254° West 444 511 18,300 -3,960 Descending Kansas City Center
06:53PM 36.8489 -93.3661 230° Southwest 401 461 14,400 -3,780 Descending Kansas City Center
06:54PM 36.7783 -93.4603 227° Southwest 380 437 10,500 -3,120 Descending Kansas City Center
06:55PM 36.7183 -93.5372 226° Southwest 348 400 8,000 -2,460 Descending Kansas City Center
06:56PM 36.6519 -93.6094 221° Southwest 296 341 5,500 -1,980 Descending Kansas City Center
06:57PM 36.6133 -93.6911 240° Southwest 283 326 4,000 -780 Descending Kansas City Center
06:58PM 36.5847 -93.7714 246° West 269 310 4,000  Level Kansas City Center
06:59PM 36.5525 -93.8472 242° Southwest 257 296 4,000  Level Kansas City Center
07:00PM 36.5211 -93.9211 242° Southwest 249 287 4,000 -480 Level Kansas City Center
07:01PM 36.4839 -94.0139 244° Southwest 248 285 3,100 -480 Descending Kansas City Center
07:02PM 36.4497 -94.0714 234° Southwest 232 267 3,100 -240 Level Kansas City Center
07:03PM 36.4056 -94.0814 190° South 214 246 2,700 -420 Descending Kansas City Center
07:05PM 36.3724 -94.1070 North  Level Estimated